Flight Track Log - Related Links

Times and Time Zones

All times are in EDT time to prevent confusion due to time zone crossing. See the SKW6226 flight status page for this flight to view local times or setup timezone preferences in your user account.

Time Position Orientation Groundspeed Altitude Reporting Facility
EDT Latitude Longitude Course Direction KTS MPH feet Rate Location/Type
Mon 12:47:58 PM 37.6667 -122.3167 North 197 227 2,100  Level Northern Cal TRACON
Mon 12:48:18 PM 37.6678 -122.3133 67° East 202 232 2,600 2,074 Climbing Oakland Center
Mon 12:49:19 PM 37.7233 -122.2858 21° North 237 273 4,900 2,439 Climbing Oakland Center
Mon 12:50:00 PM 37.7161 -122.3556 North  Level FlightAware Approximate
Mon 12:50:21 PM 37.8108 -122.3142 346° North 269 310 7,600  Level Oakland Center
Mon 12:51:00 PM 37.8504 -122.3500 North  Level FlightAware Approximate
Mon 12:51:22 PM 37.8908 -122.3353 348° North 294 338 10,200  Level Oakland Center
Mon 12:52:00 PM 37.9849 -122.3500 North  Level FlightAware Approximate
Mon 12:52:23 PM 37.9792 -122.3306 North 319 367 12,500  Level Oakland Center
Mon 12:53:00 PM 38.1169 -122.3333 North  Level FlightAware Approximate
Mon 12:53:25 PM 38.0706 -122.3269 North 329 379 15,000  Level Oakland Center
Mon 12:54:26 PM 38.1667 -122.3222 North 345 397 17,000 1,918 Climbing Oakland Center
Mon 12:55:27 PM 38.2675 -122.3178 North 361 415 18,900 1,756 Climbing Oakland Center
Mon 12:56:29 PM 38.3739 -122.3161 North 379 436 20,600 1,756 Climbing Oakland Center
Mon 12:57:30 PM 38.5067 -122.3244 357° North 398 458 22,500 1,672 Climbing Oakland Center
Mon 12:58:31 PM 38.6236 -122.3344 356° North 418 481 24,000 1,463 Climbing Oakland Center
Mon 12:59:33 PM 38.7272 -122.3408 357° North 429 494 25,500 1,415 Climbing Oakland Center
Mon 01:00:34 PM 38.8758 -122.3517 357° North 443 510 26,900 1,268 Climbing Oakland Center
Mon 01:01:36 PM 39.0050 -122.3600 357° North 457 526 28,100 1,122 Climbing Oakland Center
Mon 01:02:37 PM 39.1344 -122.3703 356° North 462 532 29,200 1,082 Climbing Oakland Center
Mon 01:03:38 PM 39.2669 -122.3803 357° North 470 541 30,300 1,024 Climbing Oakland Center
Mon 01:04:40 PM 39.4011 -122.3894 357° North 478 550 31,300 1,122 Climbing Oakland Center
Mon 01:05:41 PM 39.5339 -122.3997 357° North 481 554 32,600 1,220 Climbing Oakland Center
Mon 01:06:43 PM 39.6664 -122.4081 357° North 478 550 33,800 1,171 Climbing Oakland Center
Mon 01:07:44 PM 39.7986 -122.4175 357° North 474 545 35,000 1,073 Climbing Oakland Center
Mon 01:08:46 PM 39.9289 -122.4283 356° North 468 539 36,000 927 Climbing Oakland Center
Mon 01:09:47 PM 40.0594 -122.4408 356° North 465 535 36,900 780 Climbing Oakland Center
Mon 01:10:49 PM 40.1958 -122.4489 357° North 472 543 37,600 537 Climbing Oakland Center
Mon 01:11:50 PM 40.3283 -122.4564 358° North 473 544 38,000 197 Climbing Oakland Center
Mon 01:12:51 PM 40.4878 -122.4675 357° North 475 547 38,000  Level Oakland Center
Mon 01:13:53 PM 40.6239 -122.4769 357° North 488 562 38,000  Level Oakland Center
Mon 01:14:54 PM 40.7608 -122.4850 357° North 491 565 38,000  Level Oakland Center
Mon 01:15:56 PM 40.8978 -122.4944 357° North 494 568 38,000  Level Oakland Center
Mon 01:16:57 PM 41.0367 -122.5039 357° North 499 574 38,000  Level Oakland Center
Mon 01:17:58 PM 41.1767 -122.5186 355° North 506 582 38,000  Level Oakland Center
Mon 01:19:00 PM 41.3147 -122.5300 356° North 500 575 38,000  Level Oakland Center
Mon 01:19:33 PM 41.4083 -122.5369 357° North 494 568 38,000  Level Seattle Center
Mon 01:20:34 PM 41.5417 -122.5456 357° North 490 564 38,000  Level Seattle Center
Mon 01:21:35 PM 41.6761 -122.5561 357° North 483 556 38,000  Level Seattle Center
Mon 01:22:36 PM 41.8131 -122.5658 357° North 487 560 38,000  Level Seattle Center
Mon 01:23:37 PM 41.9489 -122.5786 356° North 484 557 38,000  Level Seattle Center
Mon 01:24:38 PM 42.0883 -122.5883 357° North 493 567 38,000  Level Seattle Center
Mon 01:25:39 PM 42.2267 -122.5983 357° North 493 567 38,000  Level Seattle Center
Mon 01:27:41 PM 42.5058 -122.6192 357° North 501 577 38,000  Level Seattle Center
Mon 01:28:41 PM 42.6450 -122.6297 357° North 503 579 38,000  Level Seattle Center
Mon 01:29:42 PM 42.7906 -122.6431 356° North 496 571 38,000  Level Seattle Center
Mon 01:30:43 PM 42.9292 -122.6539 357° North 499 574 38,000  Level Seattle Center
Mon 01:31:44 PM 43.0700 -122.6631 357° North 504 580 38,000  Level Seattle Center
Mon 01:32:45 PM 43.2111 -122.6753 356° North 507 583 38,000  Level Seattle Center
Mon 01:33:46 PM 43.3508 -122.6869 357° North 505 581 38,000 -1,131 Level Seattle Center
Mon 01:34:47 PM 43.4944 -122.6986 357° North 517 595 35,700 -2,262 Descending Seattle Center
Mon 01:35:48 PM 43.6389 -122.7103 357° North 520 598 33,400 -2,361 Descending Seattle Center
Mon 01:36:49 PM 43.7831 -122.7211 357° North 520 598 30,900 -2,508 Descending Seattle Center
Mon 01:37:50 PM 43.9269 -122.7331 357° North 521 600 28,300 -2,607 Descending Seattle Center
Mon 01:38:51 PM 44.0678 -122.7450 357° North 512 589 25,600 -2,557 Descending Seattle Center
Mon 01:39:52 PM 44.2253 -122.7442 360° North 477 549 23,100 -2,262 Descending Seattle Center
Mon 01:40:53 PM 44.3347 -122.7344 North 455 524 21,000 -2,066 Descending Seattle Center
Mon 01:41:54 PM 44.4592 -122.7233 North 451 519 18,900 -1,869 Descending Seattle Center
Mon 01:42:55 PM 44.5778 -122.7114 North 436 502 17,200 -1,820 Descending Seattle Center
Mon 01:43:56 PM 44.6928 -122.6997 North 421 484 15,200 -2,175 Descending Seattle Center
Mon 01:44:15 PM 44.7506 -122.6914 North 405 466 14,300 -1,967 Descending Seattle Center
Mon 01:44:57 PM 44.8222 -122.6867 North 394 453 13,200 -1,545 Descending Seattle Center
Mon 01:45:21 PM 44.8631 -122.6797 North 365 420 12,600 -1,180 Descending Seattle Center
Mon 01:45:58 PM 44.9217 -122.6767 North 371 427 12,000 -984 Descending Seattle Center
Mon 01:46:22 PM 44.9589 -122.6717 North 342 394 11,600 -1,082 Descending Seattle Center
Mon 01:46:59 PM 45.0097 -122.6678 North 332 382 10,900 -1,082 Descending Seattle Center
Mon 01:47:23 PM 45.0461 -122.6639 North 312 359 10,500 -1,082 Descending Seattle Center
Mon 01:48:00 PM 45.0964 -122.6697 355° North 318 366 9,800 -1,180 Descending Seattle Center
Mon 01:48:24 PM 45.1367 -122.6822 348° North 302 348 9,300 -1,082 Descending Seattle Center
Mon 01:49:01 PM 45.1767 -122.6936 349° North 296 341 8,700 -1,000 Descending Seattle Center
Mon 01:49:18 PM 45.2058 -122.7033 347° North 297 342 8,400 -1,180 Descending Seattle Center
Mon 01:50:02 PM 45.2567 -122.7186 348° North 296 341 7,500 -1,377 Descending Seattle Center
Mon 01:50:19 PM 45.2894 -122.7308 345° North 293 337 7,000 -1,279 Descending Seattle Center
Mon 01:51:03 PM 45.3344 -122.7447 348° North 291 335 6,200 -1,279 Descending Seattle Center
Mon 01:51:20 PM 45.3689 -122.7603 342° North 287 330 5,700 -1,180 Descending Seattle Center
Mon 01:52:04 PM 45.4094 -122.7786 342° North 286 329 5,000 -700 Descending Seattle Center
Mon 01:52:20 PM 45.4383 -122.7936 340° North 262 302 5,000 -100 Level Seattle Center
Mon 01:53:04 PM 45.4761 -122.8111 342° North 265 305 4,900 -197 Descending Seattle Center
Mon 01:53:21 PM 45.5033 -122.8258 339° North 246 283 4,800 -677 Descending Seattle Center
Mon 01:54:06 PM 45.5386 -122.8436 341° North 247 284 4,200 -716 Descending Seattle Center
Mon 01:54:28 PM 45.5625 -122.8728 319° Northwest 219 252 4,000 -700 Descending Seattle Center
Mon 01:55:06 PM 45.5972 -122.9097 323° Northwest 229 264 3,500 -818 Descending Seattle Center
Mon 01:55:34 PM 45.6225 -122.9133 354° North 206 237 3,100 -581 Descending Seattle Center
Mon 01:56:08 PM 45.6478 -122.8994 21° North 207 238 2,900 -98 Descending Seattle Center
Mon 01:56:35 PM 45.6642 -122.8719 50° Northeast 181 208 3,000  Climbing Seattle Center
Mon 01:57:09 PM 45.6683 -122.8375 80° East 192 221 2,900 -179 Descending Seattle Center
Mon 01:57:42 PM 45.6706 -122.7953 86° East 183 211 2,800 -393 Descending Seattle Center
Mon 01:58:10 PM 45.6639 -122.7694 110° East 180 207 2,500 -444 Descending Seattle Center
Mon 01:58:36 PM 45.6511 -122.7414 123° Southeast 157 181 2,400 -590 Descending Seattle Center
Mon 01:59:11 PM 45.6414 -122.7164 119° Southeast 163 188 1,900 -806 Descending Seattle Center
Mon 01:59:43 PM 45.6297 -122.6883 121° Southeast 134 154 1,500 -689 Descending Seattle Center
Mon 02:00:12 PM 45.6222 -122.6689 119° Southeast 153 176 1,200 -667 Descending Seattle Center
Mon 02:00:37 PM 45.6150 -122.6481 116° Southeast 128 147 900 -689 Descending Seattle Center
Mon 02:01:13 PM 45.6053 -122.6239 120° Southeast 144 166 500 -689 Descending Seattle Center
Mon 02:01:38 PM 45.5972 -122.6028 119° Southeast 129 148 200 -720 Descending Seattle Center
Mon 02:03:00 PM 45.5887 -122.5969 103° East  Level Estimated

Login

Don't have an account? Register now (free) for customized features, flight alerts, and more!